BAW428 EGLL-EHAM
Flight info
| Callsign | BAW428 |
|---|---|
| Flight time | 0h 47m |
| Altitude | 29000 |
| Route | BPK Q295 BRAIN M197 REDFA |
| Aircraft | A320/M-SDE3FGHIRWY/LB1 |
Departure
| Time | 2026-05-05 19:13 |
|---|---|
| Airport | London Heathrow Airport (EGLL) |
Arrival
| Time | 2026-05-05 20:01 |
|---|---|
| Airport | Amsterdam Airport Schiphol (EHAM) |
| Time | Latitude | Longitude | Altitude | Speed | Heading |
|---|---|---|---|---|---|
| 2026-05-05 18:49 | 51.47182 | -0.48247 | 87 ft | 0 kts | 89° |
| 2026-05-05 18:56 | 51.47182 | -0.48249 | 87 ft | 2 kts | 89° |
| 2026-05-05 18:56 | 51.47182 | -0.48290 | 88 ft | 4 kts | 89° |
| 2026-05-05 18:56 | 51.47181 | -0.48332 | 90 ft | 4 kts | 99° |
| 2026-05-05 18:56 | 51.47190 | -0.48357 | 89 ft | 2 kts | 179° |
| 2026-05-05 18:57 | 51.47210 | -0.48358 | 88 ft | 2 kts | 179° |
| 2026-05-05 18:57 | 51.47212 | -0.48358 | 88 ft | 0 kts | 179° |
| 2026-05-05 19:00 | 51.47210 | -0.48358 | 87 ft | 2 kts | 179° |
| 2026-05-05 19:01 | 51.47107 | -0.48357 | 90 ft | 23 kts | 179° |
| 2026-05-05 19:01 | 51.46945 | -0.48356 | 88 ft | 22 kts | 181° |
| 2026-05-05 19:01 | 51.46836 | -0.48356 | 89 ft | 0 kts | 178° |
| 2026-05-05 19:01 | 51.46829 | -0.48356 | 88 ft | 0 kts | 178° |
| 2026-05-05 19:03 | 51.46821 | -0.48356 | 89 ft | 6 kts | 178° |
| 2026-05-05 19:03 | 51.46761 | -0.48365 | 89 ft | 15 kts | 206° |
| 2026-05-05 19:03 | 51.46741 | -0.48531 | 87 ft | 13 kts | 261° |
| 2026-05-05 19:04 | 51.46737 | -0.48628 | 87 ft | 5 kts | 268° |
| 2026-05-05 19:04 | 51.46736 | -0.48664 | 87 ft | 0 kts | 264° |
| 2026-05-05 19:05 | 51.46735 | -0.48674 | 87 ft | 5 kts | 263° |
| 2026-05-05 19:05 | 51.46691 | -0.48747 | 88 ft | 12 kts | 191° |
| 2026-05-05 19:05 | 51.46684 | -0.48749 | 88 ft | 0 kts | 185° |
| 2026-05-05 19:06 | 51.46679 | -0.48749 | 88 ft | 5 kts | 185° |
| 2026-05-05 19:06 | 51.46624 | -0.48756 | 87 ft | 8 kts | 190° |
| 2026-05-05 19:06 | 51.46598 | -0.48769 | 88 ft | 0 kts | 197° |
| 2026-05-05 19:06 | 51.46594 | -0.48771 | 87 ft | 5 kts | 197° |
| 2026-05-05 19:07 | 51.46509 | -0.48767 | 86 ft | 14 kts | 152° |
| 2026-05-05 19:07 | 51.46477 | -0.48646 | 88 ft | 0 kts | 91° |
| 2026-05-05 19:13 | 51.46478 | -0.48475 | 86 ft | 49 kts | 89° |
| 2026-05-05 19:13 | 51.46482 | -0.47530 | 81 ft | 116 kts | 90° |
| 2026-05-05 19:13 | 51.46503 | -0.45961 | 125 ft | 160 kts | 86° |
| 2026-05-05 19:13 | 51.46506 | -0.44162 | 735 ft | 162 kts | 87° |
| 2026-05-05 19:14 | 51.46534 | -0.42351 | 1443 ft | 165 kts | 83° |
| 2026-05-05 19:14 | 51.46931 | -0.40538 | 1783 ft | 185 kts | 54° |
| 2026-05-05 19:14 | 51.47806 | -0.38838 | 2096 ft | 211 kts | 49° |
| 2026-05-05 19:14 | 51.48807 | -0.36933 | 2557 ft | 236 kts | 49° |
| 2026-05-05 19:15 | 51.49898 | -0.34850 | 3290 ft | 249 kts | 49° |
| 2026-05-05 19:15 | 51.51022 | -0.32697 | 4254 ft | 254 kts | 49° |
| 2026-05-05 19:15 | 51.52116 | -0.30439 | 5207 ft | 260 kts | 58° |
| 2026-05-05 19:15 | 51.52828 | -0.27714 | 5800 ft | 268 kts | 68° |
| 2026-05-05 19:16 | 51.53444 | -0.24883 | 5979 ft | 269 kts | 69° |
| 2026-05-05 19:16 | 51.54031 | -0.22077 | 6005 ft | 269 kts | 69° |
| 2026-05-05 19:16 | 51.54967 | -0.19543 | 6008 ft | 264 kts | 39° |
| 2026-05-05 19:16 | 51.56581 | -0.18279 | 6011 ft | 261 kts | 12° |
| 2026-05-05 19:17 | 51.58390 | -0.17724 | 6076 ft | 261 kts | 13° |
| 2026-05-05 19:17 | 51.60152 | -0.16975 | 6080 ft | 261 kts | 13° |
| 2026-05-05 19:17 | 51.61923 | -0.16306 | 6084 ft | 261 kts | 12° |
| 2026-05-05 19:17 | 51.63693 | -0.15636 | 6086 ft | 261 kts | 13° |
| 2026-05-05 19:18 | 51.65460 | -0.14931 | 6089 ft | 262 kts | 13° |
| 2026-05-05 19:18 | 51.67218 | -0.14191 | 6092 ft | 262 kts | 14° |
| 2026-05-05 19:18 | 51.68952 | -0.13432 | 6090 ft | 262 kts | 14° |
| 2026-05-05 19:18 | 51.70706 | -0.12642 | 6090 ft | 262 kts | 15° |
| 2026-05-05 19:19 | 51.72485 | -0.11739 | 6760 ft | 267 kts | 23° |
| 2026-05-05 19:19 | 51.74005 | -0.10071 | 7659 ft | 273 kts | 44° |
| 2026-05-05 19:19 | 51.75082 | -0.07522 | 8520 ft | 281 kts | 66° |
| 2026-05-05 19:19 | 51.75530 | -0.04421 | 9376 ft | 288 kts | 81° |
| 2026-05-05 19:20 | 51.75790 | -0.01194 | 10179 ft | 295 kts | 81° |
| 2026-05-05 19:20 | 51.76066 | 0.02219 | 10433 ft | 318 kts | 81° |
| 2026-05-05 19:20 | 51.76365 | 0.05870 | 10811 ft | 335 kts | 81° |
| 2026-05-05 19:20 | 51.76673 | 0.09641 | 11492 ft | 341 kts | 81° |
| 2026-05-05 19:21 | 51.76984 | 0.13459 | 12226 ft | 345 kts | 81° |
| 2026-05-05 19:21 | 51.77299 | 0.17329 | 12952 ft | 350 kts | 82° |
| 2026-05-05 19:21 | 51.77618 | 0.21250 | 13685 ft | 354 kts | 82° |
| 2026-05-05 19:21 | 51.77942 | 0.25235 | 14360 ft | 358 kts | 82° |
| 2026-05-05 19:22 | 51.78267 | 0.29227 | 14806 ft | 361 kts | 82° |
| 2026-05-05 19:22 | 51.78594 | 0.33244 | 14948 ft | 361 kts | 82° |
| 2026-05-05 19:22 | 51.78919 | 0.37272 | 14972 ft | 361 kts | 82° |
| 2026-05-05 19:22 | 51.79239 | 0.41295 | 14971 ft | 361 kts | 82° |
| 2026-05-05 19:23 | 51.79558 | 0.45321 | 14970 ft | 361 kts | 82° |
| 2026-05-05 19:23 | 51.79877 | 0.49350 | 14970 ft | 361 kts | 82° |
| 2026-05-05 19:23 | 51.80195 | 0.53375 | 14970 ft | 361 kts | 82° |
| 2026-05-05 19:23 | 51.80506 | 0.57356 | 14969 ft | 361 kts | 82° |
| 2026-05-05 19:24 | 51.80818 | 0.61385 | 14967 ft | 361 kts | 82° |
| 2026-05-05 19:24 | 51.81161 | 0.65406 | 14957 ft | 361 kts | 78° |
| 2026-05-05 19:24 | 51.81751 | 0.69348 | 14957 ft | 361 kts | 75° |
| 2026-05-05 19:24 | 51.82361 | 0.73278 | 14957 ft | 360 kts | 75° |
| 2026-05-05 19:25 | 51.82970 | 0.77219 | 14959 ft | 361 kts | 75° |
| 2026-05-05 19:25 | 51.83578 | 0.81165 | 15143 ft | 364 kts | 75° |
| 2026-05-05 19:25 | 51.84224 | 0.85122 | 15898 ft | 364 kts | 74° |
| 2026-05-05 19:25 | 51.84930 | 0.89070 | 16602 ft | 366 kts | 73° |
| 2026-05-05 19:26 | 51.85671 | 0.93028 | 17291 ft | 369 kts | 72° |
| 2026-05-05 19:26 | 51.86422 | 0.97000 | 17989 ft | 371 kts | 72° |
| 2026-05-05 19:26 | 51.87166 | 1.00971 | 18623 ft | 374 kts | 73° |
| 2026-05-05 19:26 | 51.87916 | 1.05015 | 19215 ft | 377 kts | 73° |
| 2026-05-05 19:27 | 51.88663 | 1.09106 | 19817 ft | 381 kts | 73° |
| 2026-05-05 19:27 | 51.89410 | 1.13231 | 20507 ft | 379 kts | 73° |
| 2026-05-05 19:27 | 51.90126 | 1.17213 | 21847 ft | 358 kts | 73° |
| 2026-05-05 19:27 | 51.90798 | 1.20974 | 23181 ft | 338 kts | 74° |
| 2026-05-05 19:28 | 51.91431 | 1.24521 | 24348 ft | 317 kts | 75° |
| 2026-05-05 19:28 | 51.92034 | 1.27913 | 25053 ft | 312 kts | 75° |
| 2026-05-05 19:28 | 51.92635 | 1.31290 | 25506 ft | 313 kts | 75° |
| 2026-05-05 19:28 | 51.93242 | 1.34695 | 25925 ft | 315 kts | 75° |
| 2026-05-05 19:29 | 51.93847 | 1.38107 | 26328 ft | 317 kts | 75° |
| 2026-05-05 19:29 | 51.94458 | 1.41557 | 26720 ft | 320 kts | 76° |
| 2026-05-05 19:29 | 51.95073 | 1.45036 | 27119 ft | 322 kts | 76° |
| 2026-05-05 19:29 | 51.95693 | 1.48541 | 27515 ft | 325 kts | 76° |
| 2026-05-05 19:30 | 51.96317 | 1.52080 | 27897 ft | 328 kts | 76° |
| 2026-05-05 19:30 | 51.96945 | 1.55648 | 28290 ft | 330 kts | 76° |
| 2026-05-05 19:30 | 51.97578 | 1.59245 | 28670 ft | 333 kts | 76° |
| 2026-05-05 19:30 | 51.98215 | 1.62890 | 28930 ft | 341 kts | 77° |
| 2026-05-05 19:31 | 51.98871 | 1.66664 | 28963 ft | 355 kts | 77° |
| 2026-05-05 19:31 | 51.99542 | 1.70604 | 28965 ft | 370 kts | 77° |
| 2026-05-05 19:31 | 52.00202 | 1.74722 | 28964 ft | 385 kts | 78° |
| 2026-05-05 19:31 | 52.00864 | 1.79014 | 28707 ft | 399 kts | 78° |
| 2026-05-05 19:32 | 52.01539 | 1.83443 | 28071 ft | 408 kts | 78° |
| 2026-05-05 19:32 | 52.02223 | 1.87935 | 27804 ft | 412 kts | 78° |
| 2026-05-05 19:32 | 52.02905 | 1.92402 | 27539 ft | 412 kts | 78° |
| 2026-05-05 19:32 | 52.03597 | 1.96912 | 27273 ft | 411 kts | 78° |
| 2026-05-05 19:33 | 52.04293 | 2.01417 | 27010 ft | 410 kts | 77° |
| 2026-05-05 19:33 | 52.04985 | 2.05898 | 26742 ft | 408 kts | 77° |
| 2026-05-05 19:33 | 52.05673 | 2.10359 | 26485 ft | 407 kts | 77° |
| 2026-05-05 19:33 | 52.06360 | 2.14816 | 26240 ft | 406 kts | 78° |
| 2026-05-05 19:34 | 52.07036 | 2.19245 | 25954 ft | 402 kts | 78° |
| 2026-05-05 19:34 | 52.07701 | 2.23643 | 25521 ft | 400 kts | 77° |
| 2026-05-05 19:34 | 52.08360 | 2.28024 | 25083 ft | 398 kts | 78° |
| 2026-05-05 19:35 | 52.09673 | 2.36752 | 24214 ft | 396 kts | 77° |
| 2026-05-05 19:35 | 52.10320 | 2.41103 | 23771 ft | 395 kts | 77° |
| 2026-05-05 19:35 | 52.10747 | 2.43989 | 23453 ft | 395 kts | 77° |
| 2026-05-05 19:35 | 52.11507 | 2.48275 | 22958 ft | 394 kts | 69° |
| 2026-05-05 19:36 | 52.12710 | 2.52248 | 22540 ft | 390 kts | 59° |
| 2026-05-05 19:36 | 52.14092 | 2.56017 | 22129 ft | 386 kts | 59° |
| 2026-05-05 19:36 | 52.15451 | 2.59753 | 21708 ft | 382 kts | 59° |
| 2026-05-05 19:36 | 52.16791 | 2.63455 | 21312 ft | 377 kts | 60° |
| 2026-05-05 19:37 | 52.18113 | 2.67116 | 20945 ft | 373 kts | 60° |
| 2026-05-05 19:37 | 52.19424 | 2.70754 | 20509 ft | 371 kts | 60° |
| 2026-05-05 19:37 | 52.20727 | 2.74364 | 20118 ft | 367 kts | 60° |
| 2026-05-05 19:37 | 52.22014 | 2.77939 | 19720 ft | 365 kts | 60° |
| 2026-05-05 19:38 | 52.23290 | 2.81494 | 19334 ft | 362 kts | 60° |
| 2026-05-05 19:38 | 52.24555 | 2.85024 | 18948 ft | 359 kts | 60° |
| 2026-05-05 19:38 | 52.25807 | 2.88525 | 18565 ft | 356 kts | 60° |
| 2026-05-05 19:38 | 52.27051 | 2.92012 | 18180 ft | 354 kts | 59° |
| 2026-05-05 19:39 | 52.28284 | 2.95466 | 17777 ft | 352 kts | 59° |
| 2026-05-05 19:39 | 52.29517 | 2.98917 | 17389 ft | 350 kts | 59° |
| 2026-05-05 19:39 | 52.30740 | 3.02337 | 17016 ft | 349 kts | 59° |
| 2026-05-05 19:39 | 52.31960 | 3.05752 | 16645 ft | 347 kts | 59° |
| 2026-05-05 19:40 | 52.33174 | 3.09160 | 16273 ft | 346 kts | 59° |
| 2026-05-05 19:40 | 52.34370 | 3.12524 | 15910 ft | 345 kts | 59° |
| 2026-05-05 19:40 | 52.35569 | 3.15908 | 15538 ft | 343 kts | 59° |
| 2026-05-05 19:40 | 52.36762 | 3.19279 | 15166 ft | 342 kts | 59° |
| 2026-05-05 19:41 | 52.37949 | 3.22638 | 14790 ft | 340 kts | 59° |
| 2026-05-05 19:41 | 52.39133 | 3.25994 | 14436 ft | 339 kts | 59° |
| 2026-05-05 19:41 | 52.40311 | 3.29329 | 14076 ft | 338 kts | 59° |
| 2026-05-05 19:41 | 52.41484 | 3.32656 | 13710 ft | 337 kts | 59° |
| 2026-05-05 19:42 | 52.42649 | 3.35972 | 13322 ft | 335 kts | 59° |
| 2026-05-05 19:42 | 52.43804 | 3.39267 | 12966 ft | 333 kts | 59° |
| 2026-05-05 19:42 | 52.44813 | 3.42667 | 12604 ft | 331 kts | 70° |
| 2026-05-05 19:42 | 52.45399 | 3.46304 | 12243 ft | 329 kts | 76° |
| 2026-05-05 19:43 | 52.45915 | 3.49959 | 11899 ft | 327 kts | 76° |
| 2026-05-05 19:43 | 52.46432 | 3.53574 | 11548 ft | 325 kts | 76° |
| 2026-05-05 19:43 | 52.46949 | 3.57162 | 11199 ft | 323 kts | 76° |
| 2026-05-05 19:43 | 52.47463 | 3.60730 | 10855 ft | 320 kts | 76° |
| 2026-05-05 19:44 | 52.47973 | 3.64274 | 10511 ft | 318 kts | 76° |
| 2026-05-05 19:44 | 52.48478 | 3.67795 | 10176 ft | 316 kts | 76° |
| 2026-05-05 19:44 | 52.48969 | 3.71241 | 10042 ft | 305 kts | 76° |
| 2026-05-05 19:44 | 52.49441 | 3.74576 | 9862 ft | 297 kts | 76° |
| 2026-05-05 19:45 | 52.49811 | 3.77839 | 9672 ft | 291 kts | 87° |
| 2026-05-05 19:45 | 52.49545 | 3.81115 | 9539 ft | 292 kts | 109° |
| 2026-05-05 19:45 | 52.48570 | 3.84020 | 9404 ft | 292 kts | 125° |
| 2026-05-05 19:45 | 52.47388 | 3.86731 | 9273 ft | 292 kts | 125° |
| 2026-05-05 19:46 | 52.46197 | 3.89428 | 9141 ft | 291 kts | 125° |
| 2026-05-05 19:46 | 52.45006 | 3.92112 | 9009 ft | 291 kts | 125° |
| 2026-05-05 19:46 | 52.43819 | 3.94786 | 8879 ft | 290 kts | 125° |
| 2026-05-05 19:46 | 52.42635 | 3.97460 | 8743 ft | 289 kts | 124° |
| 2026-05-05 19:47 | 52.41459 | 4.00121 | 8614 ft | 288 kts | 124° |
| 2026-05-05 19:47 | 52.40287 | 4.02773 | 8486 ft | 287 kts | 124° |
| 2026-05-05 19:47 | 52.39115 | 4.05422 | 8352 ft | 287 kts | 124° |
| 2026-05-05 19:47 | 52.37947 | 4.08063 | 8212 ft | 286 kts | 124° |
| 2026-05-05 19:48 | 52.36785 | 4.10687 | 8068 ft | 285 kts | 124° |
| 2026-05-05 19:48 | 52.35917 | 4.13512 | 7938 ft | 273 kts | 100° |
| 2026-05-05 19:48 | 52.35930 | 4.16556 | 7809 ft | 268 kts | 72° |
| 2026-05-05 19:48 | 52.36813 | 4.19173 | 7683 ft | 263 kts | 44° |
| 2026-05-05 19:49 | 52.38320 | 4.20726 | 7554 ft | 250 kts | 15° |
| 2026-05-05 19:49 | 52.39969 | 4.20812 | 7426 ft | 231 kts | 344° |
| 2026-05-05 19:49 | 52.41274 | 4.19517 | 7299 ft | 217 kts | 311° |
| 2026-05-05 19:49 | 52.41880 | 4.17270 | 7173 ft | 221 kts | 277° |
| 2026-05-05 19:50 | 52.41600 | 4.14794 | 7059 ft | 227 kts | 244° |
| 2026-05-05 19:50 | 52.40564 | 4.12824 | 6895 ft | 236 kts | 213° |
| 2026-05-05 19:50 | 52.38914 | 4.11904 | 6831 ft | 269 kts | 180° |
| 2026-05-05 19:50 | 52.37114 | 4.12671 | 6766 ft | 271 kts | 143° |
| 2026-05-05 19:51 | 52.35820 | 4.14812 | 6712 ft | 269 kts | 125° |
| 2026-05-05 19:51 | 52.34669 | 4.17240 | 6645 ft | 270 kts | 124° |
| 2026-05-05 19:51 | 52.33529 | 4.19669 | 6588 ft | 269 kts | 124° |
| 2026-05-05 19:51 | 52.32387 | 4.22104 | 6524 ft | 269 kts | 125° |
| 2026-05-05 19:52 | 52.31248 | 4.24526 | 6463 ft | 269 kts | 124° |
| 2026-05-05 19:52 | 52.30106 | 4.26950 | 6245 ft | 268 kts | 125° |
| 2026-05-05 19:52 | 52.28964 | 4.29362 | 5931 ft | 266 kts | 124° |
| 2026-05-05 19:52 | 52.27839 | 4.31727 | 5610 ft | 265 kts | 124° |
| 2026-05-05 19:53 | 52.26759 | 4.34146 | 5403 ft | 261 kts | 121° |
| 2026-05-05 19:53 | 52.25754 | 4.36564 | 5213 ft | 261 kts | 120° |
| 2026-05-05 19:53 | 52.24741 | 4.39053 | 4851 ft | 261 kts | 119° |
| 2026-05-05 19:53 | 52.23732 | 4.41546 | 4394 ft | 265 kts | 119° |
| 2026-05-05 19:54 | 52.22713 | 4.44060 | 4021 ft | 266 kts | 120° |
| 2026-05-05 19:54 | 52.21756 | 4.46629 | 3653 ft | 262 kts | 110° |
| 2026-05-05 19:54 | 52.21192 | 4.49358 | 3300 ft | 247 kts | 100° |
| 2026-05-05 19:54 | 52.21062 | 4.52016 | 3055 ft | 226 kts | 80° |
| 2026-05-05 19:55 | 52.21460 | 4.54332 | 2816 ft | 202 kts | 60° |
| 2026-05-05 19:55 | 52.22398 | 4.55879 | 2549 ft | 191 kts | 24° |
| 2026-05-05 19:55 | 52.23700 | 4.56092 | 2288 ft | 194 kts | 348° |
| 2026-05-05 19:55 | 52.24833 | 4.54871 | 2063 ft | 204 kts | 310° |
| 2026-05-05 19:56 | 52.25293 | 4.52644 | 2002 ft | 215 kts | 273° |
| 2026-05-05 19:56 | 52.24848 | 4.50260 | 2017 ft | 231 kts | 236° |
| 2026-05-05 19:56 | 52.23631 | 4.48571 | 2006 ft | 233 kts | 201° |
| 2026-05-05 19:56 | 52.22064 | 4.48223 | 2012 ft | 227 kts | 166° |
| 2026-05-05 19:57 | 52.20753 | 4.49414 | 2009 ft | 214 kts | 122° |
| 2026-05-05 19:57 | 52.20355 | 4.50831 | 2006 ft | 204 kts | 92° |
| 2026-05-05 19:57 | 52.20967 | 4.53535 | 2010 ft | 195 kts | 46° |
| 2026-05-05 19:57 | 52.21806 | 4.55290 | 2007 ft | 196 kts | 55° |
| 2026-05-05 19:58 | 52.22532 | 4.57174 | 2006 ft | 196 kts | 56° |
| 2026-05-05 19:58 | 52.23260 | 4.59071 | 1999 ft | 196 kts | 56° |
| 2026-05-05 19:58 | 52.23972 | 4.60918 | 1843 ft | 189 kts | 56° |
| 2026-05-05 19:58 | 52.24661 | 4.62702 | 1626 ft | 180 kts | 55° |
| 2026-05-05 19:59 | 52.25292 | 4.64340 | 1400 ft | 167 kts | 55° |
| 2026-05-05 19:59 | 52.25899 | 4.65910 | 1156 ft | 156 kts | 55° |
| 2026-05-05 19:59 | 52.26440 | 4.67317 | 966 ft | 137 kts | 54° |
| 2026-05-05 19:59 | 52.26929 | 4.68583 | 779 ft | 131 kts | 54° |
| 2026-05-05 20:00 | 52.27413 | 4.69836 | 589 ft | 130 kts | 54° |
| 2026-05-05 20:00 | 52.27891 | 4.71076 | 412 ft | 130 kts | 54° |
| 2026-05-05 20:00 | 52.28368 | 4.72326 | 222 ft | 128 kts | 54° |
| 2026-05-05 20:00 | 52.28849 | 4.73564 | 64 ft | 129 kts | 54° |
| 2026-05-05 20:01 | 52.29306 | 4.74758 | -1 ft | 105 kts | 56° |
| 2026-05-05 20:01 | 52.29536 | 4.75346 | -3 ft | 28 kts | 58° |
| 2026-05-05 20:01 | 52.29673 | 4.75672 | -2 ft | 38 kts | 47° |
| 2026-05-05 20:01 | 52.29883 | 4.75886 | -3 ft | 29 kts | 27° |
| 2026-05-05 20:02 | 52.30025 | 4.76058 | -3 ft | 24 kts | 57° |
| 2026-05-05 20:02 | 52.30115 | 4.76305 | -3 ft | 26 kts | 56° |
| 2026-05-05 20:02 | 52.30218 | 4.76567 | -3 ft | 29 kts | 56° |
| 2026-05-05 20:02 | 52.30325 | 4.76854 | -3 ft | 31 kts | 58° |
| 2026-05-05 20:03 | 52.30439 | 4.77143 | -3 ft | 14 kts | 53° |
| 2026-05-05 20:03 | 52.30505 | 4.77089 | -3 ft | 14 kts | 268° |
| 2026-05-05 20:03 | 52.30459 | 4.76936 | -3 ft | 17 kts | 236° |
| 2026-05-05 20:03 | 52.30389 | 4.76765 | -3 ft | 20 kts | 238° |
| 2026-05-05 20:04 | 52.30379 | 4.76568 | -3 ft | 19 kts | 314° |
| 2026-05-05 20:04 | 52.30425 | 4.76580 | -3 ft | 6 kts | 46° |
| 2026-05-05 20:04 | 52.30437 | 4.76607 | -3 ft | 0 kts | 55° |